Time;durP1;ratioP1;P1;durP2;ratioP2;P2;SDS_P1;SDS_P2;PMS_P1;PMS_P2;Temp;Humidity;BMP_temperature;BMP_pressure;BME280_temperature;BME280_humidity;BME280_pressure;Samples;Min_cycle;Max_cycle;Signal;HPM_P1;HPM_P2
2022/04/17 00:02:03;;;;;;;5.53;5.15;;;;;;;-141.48;100.00;69781.59;5209441;28;20025;-81
2022/04/17 00:04:34;;;;;;;5.82;5.40;;;;;;;-141.48;100.00;69781.59;5220276;28;20025;-81
2022/04/17 00:07:04;;;;;;;6.13;5.65;;;;;;;-141.48;100.00;69781.59;5200573;28;20100;-82
2022/04/17 00:09:35;;;;;;;13.38;5.95;;;;;;;-141.48;100.00;69781.59;5218089;28;20083;-81
2022/04/17 00:12:06;;;;;;;6.43;5.93;;;;;;;-141.48;100.00;69781.59;5218381;28;20108;-81
2022/04/17 00:14:37;;;;;;;6.20;5.68;;;;;;;-141.48;100.00;69781.59;5217660;28;20025;-80
2022/04/17 00:17:07;;;;;;;5.93;5.60;;;;;;;-141.48;100.00;69781.59;5218110;28;20013;-82
2022/04/17 00:19:38;;;;;;;5.97;5.57;;;;;;;-141.48;100.00;69781.59;5218062;28;20047;-80
2022/04/17 00:22:08;;;;;;;5.57;5.13;;;;;;;-141.48;100.00;69781.59;5217396;28;20104;-81
2022/04/17 00:24:40;;;;;;;9.50;6.15;;;;;;;-141.48;100.00;69781.59;5201107;28;20084;-81
2022/04/17 00:27:10;;;;;;;6.07;5.68;;;;;;;-141.48;100.00;69781.59;5218339;28;20033;-81
2022/04/17 00:29:43;;;;;;;6.78;6.18;;;;;;;-141.48;100.00;69781.59;5217475;28;20544;-81
2022/04/17 00:32:14;;;;;;;6.95;6.35;;;;;;;-141.48;100.00;69781.59;5200304;28;20025;-81
2022/04/17 00:34:45;;;;;;;7.25;6.63;;;;;;;-141.48;100.00;69781.59;5218237;28;20473;-81
2022/04/17 00:37:15;;;;;;;5.97;5.65;;;;;;;-141.48;100.00;69781.59;5220000;28;20030;-81
2022/04/17 00:39:46;;;;;;;6.72;6.30;;;;;;;-141.48;100.00;69781.59;5202309;28;20026;-81
2022/04/17 00:42:16;;;;;;;6.30;5.97;;;;;;;-141.48;100.00;69781.59;5200764;28;20026;-81
2022/04/17 00:44:47;;;;;;;5.88;5.38;;;;;;;-141.48;100.00;69781.59;5217674;28;20025;-81
2022/04/17 00:47:17;;;;;;;6.25;5.85;;;;;;;-141.48;100.00;69781.59;5217782;28;20028;-81
2022/04/17 00:49:48;;;;;;;6.70;6.10;;;;;;;-141.48;100.00;69781.59;5218007;28;20025;-82
2022/04/17 00:52:20;;;;;;;5.95;4.90;;;;;;;-141.48;100.00;69781.59;5217933;28;20025;-82
2022/04/17 00:54:53;;;;;;;6.53;5.95;;;;;;;-141.48;100.00;69781.59;5217350;28;20017;-81
2022/04/17 00:57:24;;;;;;;6.43;5.93;;;;;;;-141.48;100.00;69781.59;5218240;28;20119;-82
2022/04/17 00:59:57;;;;;;;6.88;6.43;;;;;;;-141.48;100.00;69781.59;5217126;28;20049;-82
2022/04/17 01:02:28;;;;;;;4.88;4.57;;;;;;;-141.48;100.00;69781.59;5218892;28;20021;-80
2022/04/17 01:04:58;;;;;;;6.40;5.90;;;;;;;-141.48;100.00;69781.59;5202340;28;20021;-81
2022/04/17 01:07:28;;;;;;;17.58;7.03;;;;;;;-141.48;100.00;69781.59;5217514;28;20022;-81
2022/04/17 01:10:00;;;;;;;7.00;6.22;;;;;;;-141.48;100.00;69781.59;5216853;28;20061;-82
2022/04/17 01:12:31;;;;;;;4.80;4.50;;;;;;;-141.48;100.00;69781.59;5216075;28;20029;-81
2022/04/17 01:15:02;;;;;;;6.50;6.03;;;;;;;-141.48;100.00;69781.59;5215929;28;20090;-81
2022/04/17 01:17:33;;;;;;;6.05;5.75;;;;;;;-141.48;100.00;69781.59;5216464;28;20099;-81
2022/04/17 01:20:04;;;;;;;5.70;5.20;;;;;;;-141.48;100.00;69781.59;5216603;28;20021;-82
2022/04/17 01:22:35;;;;;;;7.93;5.75;;;;;;;-141.48;100.00;69781.59;5197562;28;20034;-82
2022/04/17 01:27:54;;;;;;;6.85;6.45;;;;;;;-141.48;100.00;69781.59;5235927;28;20032;-82
2022/04/17 01:30:26;;;;;;;6.30;5.75;;;;;;;-141.48;100.00;69781.59;5236043;28;20024;-80
2022/04/17 01:32:56;;;;;;;6.57;6.05;;;;;;;-141.48;100.00;69781.59;5235945;28;20041;-81
2022/04/17 01:35:26;;;;;;;8.85;6.43;;;;;;;-141.48;100.00;69781.59;5234975;28;20400;-81
2022/04/17 01:38:24;;;;;;;5.75;5.35;;;;;;;-141.48;100.00;69781.59;5236876;28;20028;-81
2022/04/17 01:40:54;;;;;;;6.72;6.18;;;;;;;-141.48;100.00;69781.59;5232702;28;20043;-80
2022/04/17 01:43:25;;;;;;;5.63;5.32;;;;;;;-141.48;100.00;69781.59;5235811;28;20060;-82
2022/04/17 01:45:55;;;;;;;5.68;5.38;;;;;;;-141.48;100.00;69781.59;5235259;28;20023;-81
2022/04/17 01:48:25;;;;;;;5.43;5.13;;;;;;;-141.48;100.00;69781.59;5235691;28;20084;-82
2022/04/17 01:50:56;;;;;;;6.32;5.82;;;;;;;-141.48;100.00;69781.59;5234621;28;20044;-81
2022/04/17 01:53:26;;;;;;;5.78;5.28;;;;;;;-141.48;100.00;69781.59;5236130;28;20031;-80
2022/04/17 01:56:00;;;;;;;5.55;5.07;;;;;;;-141.48;100.00;69781.59;5234722;28;20107;-82
2022/04/17 01:58:30;;;;;;;6.90;6.28;;;;;;;-141.48;100.00;69781.59;5233812;28;20017;-81
2022/04/17 02:01:00;;;;;;;6.07;5.60;;;;;;;-141.48;100.00;69781.59;5235309;28;20040;-81
2022/04/17 02:03:31;;;;;;;5.82;5.53;;;;;;;-141.48;100.00;69781.59;5234843;28;20070;-81
2022/04/17 02:06:02;;;;;;;7.07;6.45;;;;;;;-141.48;100.00;69781.59;5235559;28;20111;-81
2022/04/17 02:08:33;;;;;;;6.60;6.15;;;;;;;-141.48;100.00;69781.59;5234066;28;20027;-81
2022/04/17 02:11:03;;;;;;;6.38;6.03;;;;;;;-141.48;100.00;69781.59;5236350;28;20025;-80
2022/04/17 02:13:34;;;;;;;5.38;5.03;;;;;;;-141.48;100.00;69781.59;5236578;28;20451;-80
2022/04/17 02:16:05;;;;;;;5.95;5.65;;;;;;;-141.48;100.00;69781.59;5235744;28;20021;-81
2022/04/17 02:18:36;;;;;;;7.45;5.32;;;;;;;-141.48;100.00;69781.59;5236865;28;20021;-80
2022/04/17 02:21:08;;;;;;;5.68;5.28;;;;;;;-141.48;100.00;69781.59;5237128;28;20024;-80
2022/04/17 02:23:41;;;;;;;5.97;5.57;;;;;;;-141.48;100.00;69781.59;5236829;28;20025;-80
2022/04/17 02:26:13;;;;;;;5.88;5.47;;;;;;;-141.48;100.00;69781.59;5242133;28;20029;-81
2022/04/17 02:28:45;;;;;;;6.35;5.80;;;;;;;-141.48;100.00;69781.59;5245197;28;20016;-81
2022/04/17 02:31:16;;;;;;;7.20;6.72;;;;;;;-141.48;100.00;69781.59;5237454;28;20040;-80
2022/04/17 02:33:47;;;;;;;5.68;5.32;;;;;;;-141.48;100.00;69781.59;5234822;28;20116;-81
2022/04/17 02:36:18;;;;;;;5.78;5.38;;;;;;;-141.48;100.00;69781.59;5236301;28;20839;-81
2022/04/17 02:38:48;;;;;;;6.07;5.75;;;;;;;-141.48;100.00;69781.59;5236744;28;20028;-80
2022/04/17 02:41:19;;;;;;;6.28;5.97;;;;;;;-141.48;100.00;69781.59;5236278;28;20025;-80
2022/04/17 02:43:49;;;;;;;5.57;5.13;;;;;;;-141.48;100.00;69781.59;5236522;28;20029;-81
2022/04/17 02:49:09;;;;;;;4.38;4.15;;;;;;;-141.48;100.00;69781.59;5242857;28;20088;-80
2022/04/17 02:51:39;;;;;;;6.38;5.80;;;;;;;-141.48;100.00;69781.59;5242811;28;20021;-82
2022/04/17 02:54:10;;;;;;;6.68;6.20;;;;;;;-141.48;100.00;69781.59;5242163;28;20049;-82
2022/04/17 02:56:40;;;;;;;5.78;5.45;;;;;;;-141.48;100.00;69781.59;5242417;28;20021;-80
2022/04/17 02:59:11;;;;;;;6.03;5.25;;;;;;;-141.48;100.00;69781.59;5242659;28;20043;-81
2022/04/17 03:07:19;;;;;;;6.25;5.78;;;;;;;-141.48;100.00;69781.59;5242612;28;20039;-81
2022/04/17 03:09:49;;;;;;;5.28;4.90;;;;;;;-141.48;100.00;69781.59;5241325;28;20029;-81
2022/04/17 03:12:20;;;;;;;5.22;4.93;;;;;;;-141.48;100.00;69781.59;5242515;28;20028;-82
2022/04/17 03:14:50;;;;;;;5.43;5.03;;;;;;;-141.48;100.00;69781.59;5242637;28;20021;-81
2022/04/17 03:17:20;;;;;;;4.65;4.20;;;;;;;-141.48;100.00;69781.59;5242886;28;20060;-81
2022/04/17 03:19:52;;;;;;;4.43;4.22;;;;;;;-141.48;100.00;69781.59;5242947;28;20112;-81
2022/04/17 03:22:24;;;;;;;5.72;5.38;;;;;;;-141.48;100.00;69781.59;5247649;28;20025;-81
2022/04/17 03:24:55;;;;;;;4.57;4.25;;;;;;;-141.48;100.00;69781.59;5241748;28;20036;-81
2022/04/17 03:27:25;;;;;;;5.38;4.97;;;;;;;-141.48;100.00;69781.59;5226717;28;20392;-81
2022/04/17 03:29:56;;;;;;;5.07;4.78;;;;;;;-141.48;100.00;69781.59;5228043;28;20071;-81
2022/04/17 03:32:26;;;;;;;5.00;4.70;;;;;;;-141.48;100.00;69781.59;5226475;28;20029;-81
2022/04/17 03:34:56;;;;;;;5.38;4.97;;;;;;;-141.48;100.00;69781.59;5225940;28;20159;-81
2022/04/17 03:37:27;;;;;;;4.88;4.60;;;;;;;-141.48;100.00;69781.59;5225893;28;20079;-81
2022/04/17 03:39:57;;;;;;;6.18;5.72;;;;;;;-141.48;100.00;69781.59;5225751;28;20021;-82
2022/04/17 03:42:27;;;;;;;5.57;5.28;;;;;;;-141.48;100.00;69781.59;5225398;28;20056;-81
2022/04/17 03:44:58;;;;;;;5.20;4.90;;;;;;;-141.48;100.00;69781.59;5224074;28;20400;-81
2022/04/17 03:47:28;;;;;;;6.32;5.82;;;;;;;-141.48;100.00;69781.59;5223881;28;20028;-81
2022/04/17 03:49:59;;;;;;;4.10;3.85;;;;;;;-141.48;100.00;69781.59;5207548;28;20116;-81
2022/04/17 03:52:47;;;;;;;4.40;4.20;;;;;;;-141.48;100.00;69781.59;5224777;28;20036;-83
2022/04/17 03:55:17;;;;;;;9.02;4.53;;;;;;;-141.48;100.00;69781.59;5223045;28;20033;-81
2022/04/17 03:57:48;;;;;;;5.88;4.80;;;;;;;-141.48;100.00;69781.59;5220718;28;20017;-82
2022/04/17 04:00:18;;;;;;;18.63;6.20;;;;;;;-141.48;100.00;69781.59;5220344;28;20056;-81
2022/04/17 04:02:51;;;;;;;6.38;5.97;;;;;;;-141.48;100.00;69781.59;5219967;28;20112;-82
2022/04/17 04:05:21;;;;;;;5.43;5.13;;;;;;;-141.48;100.00;69781.59;5220030;28;20029;-81
2022/04/17 04:07:52;;;;;;;6.45;6.03;;;;;;;-141.48;100.00;69781.59;5219087;28;20548;-80
2022/04/17 04:10:22;;;;;;;5.35;4.78;;;;;;;-141.48;100.00;69781.59;5218499;28;20439;-83
2022/04/17 04:12:53;;;;;;;4.97;4.68;;;;;;;-141.48;100.00;69781.59;5200652;28;20056;-83
2022/04/17 04:15:24;;;;;;;5.55;5.15;;;;;;;-141.48;100.00;69781.59;5217789;28;20030;-83
2022/04/17 04:17:54;;;;;;;5.20;4.85;;;;;;;-141.48;100.00;69781.59;5217984;28;20024;-81
2022/04/17 04:20:24;;;;;;;5.95;5.47;;;;;;;-141.48;100.00;69781.59;5218364;28;20033;-82
2022/04/17 04:22:56;;;;;;;7.38;6.13;;;;;;;-141.48;100.00;69781.59;5218916;28;20029;-81
2022/04/17 04:25:26;;;;;;;5.65;5.35;;;;;;;-141.48;100.00;69781.59;5218123;28;20036;-82
2022/04/17 04:30:46;;;;;;;5.60;5.30;;;;;;;-141.48;100.00;69781.59;5197352;28;20102;-82
2022/04/17 04:33:16;;;;;;;6.05;5.65;;;;;;;-141.48;100.00;69781.59;5197091;28;20049;-81
2022/04/17 04:35:47;;;;;;;5.68;5.20;;;;;;;-141.48;100.00;69781.59;5205721;28;20087;-83
2022/04/17 04:38:18;;;;;;;4.97;4.68;;;;;;;-141.48;100.00;69781.59;5222207;28;20393;-83
2022/04/17 04:40:48;;;;;;;6.03;5.55;;;;;;;-141.48;100.00;69781.59;5222978;28;20022;-84
2022/04/17 04:43:19;;;;;;;5.68;5.20;;;;;;;-141.48;100.00;69781.59;5221925;28;20033;-84
2022/04/17 04:46:08;;;;;;;5.72;5.43;;;;;;;-141.48;100.00;69781.59;5223581;28;20040;-80
2022/04/17 04:51:29;;;;;;;5.55;5.15;;;;;;;-141.48;100.00;69781.59;5217746;28;20040;-81
2022/04/17 04:54:00;;;;;;;4.13;3.83;;;;;;;-141.48;100.00;69781.59;5217510;28;20085;-81
2022/04/17 04:56:30;;;;;;;5.22;4.93;;;;;;;-141.48;100.00;69781.59;5216773;28;20028;-80
2022/04/17 04:59:00;;;;;;;6.65;6.10;;;;;;;-141.48;100.00;69781.59;5216624;28;20079;-82
2022/04/17 05:01:31;;;;;;;11.48;6.15;;;;;;;-141.48;100.00;69781.59;5217660;28;20064;-81
2022/04/17 05:04:02;;;;;;;4.80;4.55;;;;;;;-141.48;100.00;69781.59;5215947;28;20040;-81
2022/04/17 05:06:32;;;;;;;5.25;4.95;;;;;;;-141.48;100.00;69781.59;5216835;28;20025;-81
2022/04/17 05:09:03;;;;;;;5.25;4.95;;;;;;;-141.48;100.00;69781.59;5215389;28;20022;-81
2022/04/17 05:11:33;;;;;;;8.18;4.70;;;;;;;-141.48;100.00;69781.59;5216215;28;20441;-81
2022/04/17 05:14:08;;;;;;;7.63;5.25;;;;;;;-141.48;100.00;69781.59;5216647;28;20443;-81
2022/04/17 05:16:39;;;;;;;5.90;5.60;;;;;;;-141.48;100.00;69781.59;5216644;28;20030;-80
2022/04/17 05:19:24;;;;;;;8.93;5.05;;;;;;;-141.48;100.00;69781.59;5215155;28;20097;-81
2022/04/17 05:21:58;;;;;;;5.63;5.13;;;;;;;-141.48;100.00;69781.59;5216393;28;20060;-81
2022/04/17 05:24:28;;;;;;;6.25;5.75;;;;;;;-141.48;100.00;69781.59;5216357;28;20568;-81
2022/04/17 05:27:00;;;;;;;6.95;6.45;;;;;;;-141.48;100.00;69781.59;5257608;28;20104;-81
2022/04/17 05:29:31;;;;;;;5.47;5.07;;;;;;;-141.48;100.00;69781.59;5239966;28;20453;-80
2022/04/17 05:32:01;;;;;;;8.95;4.57;;;;;;;-141.48;100.00;69781.59;5257591;28;20052;-80
2022/04/17 05:34:32;;;;;;;4.47;4.25;;;;;;;-141.48;100.00;69781.59;5257166;28;20029;-81
2022/04/17 05:37:04;;;;;;;6.10;5.70;;;;;;;-141.48;100.00;69781.59;5240047;28;20016;-81
2022/04/17 05:39:34;;;;;;;5.53;5.13;;;;;;;-141.48;100.00;69781.59;5239896;28;20028;-81
2022/04/17 05:42:05;;;;;;;4.78;4.47;;;;;;;-141.48;100.00;69781.59;5257535;28;20146;-80
2022/04/17 05:44:37;;;;;;;5.55;5.15;;;;;;;-141.48;100.00;69781.59;5240040;28;20028;-80
2022/04/17 05:47:09;;;;;;;4.95;4.57;;;;;;;-141.48;100.00;69781.59;5244143;28;20029;-80
2022/04/17 05:49:39;;;;;;;3.90;3.70;;;;;;;-141.48;100.00;69781.59;5262308;28;20036;-80
2022/04/17 05:52:11;;;;;;;5.95;5.55;;;;;;;-141.48;100.00;69781.59;5262813;28;20035;-81
2022/04/17 05:54:43;;;;;;;4.70;4.50;;;;;;;-141.48;100.00;69781.59;5243779;28;20050;-79
2022/04/17 05:57:14;;;;;;;5.65;4.75;;;;;;;-141.48;100.00;69781.59;5264075;28;20021;-81
2022/04/17 05:59:44;;;;;;;5.18;4.85;;;;;;;-141.48;100.00;69781.59;5261134;28;20036;-80
2022/04/17 06:02:15;;;;;;;6.00;5.60;;;;;;;-141.48;100.00;69781.59;5243554;28;20024;-80
2022/04/17 06:04:47;;;;;;;5.07;4.72;;;;;;;-141.48;100.00;69781.59;5261192;28;20028;-80
2022/04/17 06:07:26;;;;;;;5.53;5.13;;;;;;;-141.48;100.00;69781.59;5262165;28;20016;-80
2022/04/17 06:10:01;;;;;;;7.28;6.65;;;;;;;-141.48;100.00;69781.59;5243603;28;20033;-80
2022/04/17 06:12:32;;;;;;;11.02;5.80;;;;;;;-141.48;100.00;69781.59;5261417;28;20029;-80
2022/04/17 06:15:04;;;;;;;5.93;5.45;;;;;;;-141.48;100.00;69781.59;5258960;28;20510;-82
2022/04/17 06:17:42;;;;;;;5.75;5.32;;;;;;;-141.48;100.00;69781.59;5241819;28;20039;-81
2022/04/17 06:20:14;;;;;;;5.30;4.97;;;;;;;-141.48;100.00;69781.59;5240759;28;20020;-81
2022/04/17 06:22:44;;;;;;;5.90;5.47;;;;;;;-141.48;100.00;69781.59;5258837;28;20191;-81
2022/04/17 06:25:15;;;;;;;4.78;4.47;;;;;;;-141.48;100.00;69781.59;5258210;28;20054;-81
2022/04/17 06:27:47;;;;;;;6.00;5.50;;;;;;;-141.48;100.00;69781.59;5258498;28;20025;-81
2022/04/17 06:30:21;;;;;;;5.13;4.85;;;;;;;-141.48;100.00;69781.59;5257952;28;20052;-79
2022/04/17 06:32:52;;;;;;;15.63;5.80;;;;;;;-141.48;100.00;69781.59;5239382;28;20028;-80
2022/04/17 06:35:22;;;;;;;5.18;4.45;;;;;;;-141.48;100.00;69781.59;5238790;28;20051;-80
2022/04/17 06:37:54;;;;;;;7.82;4.88;;;;;;;-141.48;100.00;69781.59;5257009;28;20016;-81
2022/04/17 06:40:28;;;;;;;5.35;4.95;;;;;;;-141.48;100.00;69781.59;5238898;28;20031;-80
2022/04/17 06:43:05;;;;;;;6.65;6.05;;;;;;;-141.48;100.00;69781.59;5256743;28;20420;-80
2022/04/17 06:45:38;;;;;;;4.93;4.72;;;;;;;-141.48;100.00;69781.59;5238840;28;20111;-80
2022/04/17 06:48:14;;;;;;;5.55;5.20;;;;;;;-141.48;100.00;69781.59;5238639;28;20080;-79
2022/04/17 06:50:47;;;;;;;5.13;4.82;;;;;;;-141.48;100.00;69781.59;5239023;28;20096;-80
2022/04/17 06:53:17;;;;;;;4.82;4.53;;;;;;;-141.48;100.00;69781.59;5256628;28;20028;-81
2022/04/17 06:55:48;;;;;;;5.60;4.70;;;;;;;-141.48;100.00;69781.59;5257084;28;20024;-80
2022/04/17 06:58:20;;;;;;;5.18;4.50;;;;;;;-141.48;100.00;69781.59;5256696;28;20024;-80
2022/04/17 07:00:50;;;;;;;5.65;4.68;;;;;;;-141.48;100.00;69781.59;5256533;28;20053;-81
2022/04/17 07:03:21;;;;;;;5.30;5.00;;;;;;;-141.48;100.00;69781.59;5256555;28;20115;-80
2022/04/17 07:05:52;;;;;;;5.93;4.78;;;;;;;-141.48;100.00;69781.59;5257437;28;20403;-81
2022/04/17 07:08:22;;;;;;;5.80;5.40;;;;;;;-141.48;100.00;69781.59;5258918;28;20020;-80
2022/04/17 07:10:53;;;;;;;4.40;4.10;;;;;;;-141.48;100.00;69781.59;5259888;28;20039;-80
2022/04/17 07:13:24;;;;;;;4.97;4.68;;;;;;;-141.48;100.00;69781.59;5241827;28;20032;-79
2022/04/17 07:15:54;;;;;;;5.55;5.25;;;;;;;-141.48;100.00;69781.59;5256818;28;20027;-79
2022/04/17 07:18:25;;;;;;;5.78;5.40;;;;;;;-141.48;100.00;69781.59;5257167;28;20548;-79
2022/04/17 07:20:55;;;;;;;4.75;4.55;;;;;;;-141.48;100.00;69781.59;5238554;28;20036;-81
2022/04/17 07:23:26;;;;;;;4.40;4.20;;;;;;;-141.48;100.00;69781.59;5256662;28;20045;-79
2022/04/17 07:25:57;;;;;;;5.07;4.55;;;;;;;-141.48;100.00;69781.59;5255613;28;20032;-80
2022/04/17 07:28:27;;;;;;;4.82;4.50;;;;;;;-141.48;100.00;69781.59;5237785;28;20032;-80
2022/04/17 07:30:58;;;;;;;6.60;6.00;;;;;;;-141.48;100.00;69781.59;5257512;28;20119;-79
2022/04/17 07:33:28;;;;;;;6.85;4.72;;;;;;;-141.48;100.00;69781.59;5241065;28;20032;-80
2022/04/17 07:35:59;;;;;;;4.90;4.70;;;;;;;-141.48;100.00;69781.59;5258690;28;20029;-81
2022/04/17 07:38:29;;;;;;;4.82;4.45;;;;;;;-141.48;100.00;69781.59;5259416;28;20012;-82
2022/04/17 07:40:59;;;;;;;4.68;4.22;;;;;;;-141.48;100.00;69781.59;5259524;28;20031;-80
2022/04/17 07:43:30;;;;;;;4.80;4.57;;;;;;;-141.48;100.00;69781.59;5259497;28;20027;-80
2022/04/17 07:46:00;;;;;;;4.97;4.68;;;;;;;-141.48;100.00;69781.59;5259349;28;20025;-81
2022/04/17 07:48:31;;;;;;;3.85;3.65;;;;;;;-141.48;100.00;69781.59;5240500;28;20041;-81
2022/04/17 07:51:01;;;;;;;9.38;5.15;;;;;;;-141.48;100.00;69781.59;5259015;28;20028;-80
2022/04/17 07:53:31;;;;;;;3.90;3.42;;;;;;;-141.48;100.00;69781.59;5241806;28;20609;-80
2022/04/17 07:56:02;;;;;;;4.53;4.22;;;;;;;-141.48;100.00;69781.59;5259832;28;20016;-78
2022/04/17 07:58:35;;;;;;;4.03;3.83;;;;;;;-141.48;100.00;69781.59;5259446;28;20016;-81
2022/04/17 08:01:11;;;;;;;4.90;4.60;;;;;;;-141.48;100.00;69781.59;5258853;28;20382;-81
2022/04/17 08:06:17;;;;;;;7.07;4.78;;;;;;;-141.48;100.00;69781.59;5259060;28;20044;-79
2022/04/17 08:08:51;;;;;;;5.10;4.78;;;;;;;-141.48;100.00;69781.59;5258779;28;20044;-80
2022/04/17 08:11:21;;;;;;;4.60;4.30;;;;;;;-141.48;100.00;69781.59;5257901;28;20024;-81
2022/04/17 08:13:52;;;;;;;4.60;4.38;;;;;;;-141.48;100.00;69781.59;5240827;28;20043;-82
2022/04/17 08:16:23;;;;;;;4.75;3.85;;;;;;;-141.48;100.00;69781.59;5261405;28;20043;-82
2022/04/17 08:18:53;;;;;;;3.90;3.75;;;;;;;-141.48;100.00;69781.59;5260330;28;20017;-82
2022/04/17 08:21:24;;;;;;;3.75;3.45;;;;;;;-141.48;100.00;69781.59;5242697;28;20082;-82
2022/04/17 08:23:55;;;;;;;4.63;4.32;;;;;;;-141.48;100.00;69781.59;5259326;28;20055;-82
2022/04/17 08:26:25;;;;;;;3.97;3.72;;;;;;;-141.48;100.00;69781.59;5241612;28;20027;-82
2022/04/17 08:28:55;;;;;;;3.50;3.35;;;;;;;-141.48;100.00;69781.59;5241605;28;20020;-82
2022/04/17 08:31:26;;;;;;;4.25;3.83;;;;;;;-141.48;100.00;69781.59;5258895;28;20070;-83
2022/04/17 08:33:56;;;;;;;3.40;3.10;;;;;;;-141.48;100.00;69781.59;5258964;28;20055;-82
2022/04/17 08:36:27;;;;;;;4.22;3.92;;;;;;;-141.48;100.00;69781.59;5241264;28;20024;-82
2022/04/17 08:38:57;;;;;;;4.15;3.85;;;;;;;-141.48;100.00;69781.59;5259681;28;20021;-82
2022/04/17 08:41:31;;;;;;;4.53;3.58;;;;;;;-141.48;100.00;69781.59;5258096;28;20484;-82
2022/04/17 08:44:02;;;;;;;4.05;3.78;;;;;;;-141.48;100.00;69781.59;5258779;28;20024;-82
2022/04/17 08:46:32;;;;;;;8.82;3.38;;;;;;;-141.48;100.00;69781.59;5258590;28;20063;-81
2022/04/17 08:49:04;;;;;;;4.05;3.85;;;;;;;-141.48;100.00;69781.59;5258529;28;20080;-81
2022/04/17 08:51:36;;;;;;;3.70;3.50;;;;;;;-141.48;100.00;69781.59;5258860;28;20074;-81
2022/04/17 08:54:07;;;;;;;3.50;3.33;;;;;;;-141.48;100.00;69781.59;5258822;28;20025;-81
2022/04/17 08:56:38;;;;;;;3.08;2.88;;;;;;;-141.48;100.00;69781.59;5259027;28;20082;-82
2022/04/17 08:59:08;;;;;;;4.97;3.47;;;;;;;-141.48;100.00;69781.59;5242125;28;20040;-81
2022/04/17 09:01:39;;;;;;;3.63;3.42;;;;;;;-141.48;100.00;69781.59;5242518;28;20021;-82
2022/04/17 09:04:11;;;;;;;4.50;4.20;;;;;;;-141.48;100.00;69781.59;5259857;28;20044;-82
2022/04/17 09:06:43;;;;;;;5.80;3.47;;;;;;;-141.48;100.00;69781.59;5260415;28;20086;-83
2022/04/17 09:09:14;;;;;;;2.83;2.63;;;;;;;-141.48;100.00;69781.59;5260842;28;20615;-83
2022/04/17 09:11:44;;;;;;;4.18;3.97;;;;;;;-141.48;100.00;69781.59;5262508;28;20020;-83
2022/04/17 09:14:19;;;;;;;4.82;3.90;;;;;;;-141.48;100.00;69781.59;5244296;28;20020;-83
2022/04/17 09:16:51;;;;;;;3.90;3.35;;;;;;;-141.48;100.00;69781.59;5263426;28;20050;-83
2022/04/17 09:19:25;;;;;;;3.25;3.05;;;;;;;-141.48;100.00;69781.59;5263766;28;20024;-83
2022/04/17 09:21:57;;;;;;;4.20;3.90;;;;;;;-141.48;100.00;69781.59;5264523;28;20032;-83
2022/04/17 09:24:28;;;;;;;4.57;4.18;;;;;;;-141.48;100.00;69781.59;5246019;28;20039;-82
2022/04/17 09:26:59;;;;;;;4.95;4.65;;;;;;;-141.48;100.00;69781.59;5262804;28;20278;-82
2022/04/17 09:29:36;;;;;;;3.97;3.75;;;;;;;-141.48;100.00;69781.59;5260883;28;20056;-82
2022/04/17 09:32:07;;;;;;;4.40;4.10;;;;;;;-141.48;100.00;69781.59;5261049;28;20031;-82
2022/04/17 09:34:46;;;;;;;4.00;3.70;;;;;;;-141.48;100.00;69781.59;5244207;28;20039;-83
2022/04/17 09:37:22;;;;;;;5.32;4.82;;;;;;;-141.48;100.00;69781.59;5263742;28;20016;-83
2022/04/17 09:40:06;;;;;;;3.67;3.47;;;;;;;-141.48;100.00;69781.59;5264949;28;20055;-83
2022/04/17 09:42:36;;;;;;;4.07;3.78;;;;;;;-141.48;100.00;69781.59;5262233;28;20070;-83
2022/04/17 09:45:07;;;;;;;3.67;3.47;;;;;;;-141.48;100.00;69781.59;5257016;28;20021;-83
2022/04/17 09:47:37;;;;;;;3.38;3.17;;;;;;;-141.48;100.00;69781.59;5257474;28;20031;-83
2022/04/17 09:50:08;;;;;;;2.75;2.65;;;;;;;-141.48;100.00;69781.59;5240510;28;20050;-82
2022/04/17 09:52:46;;;;;;;3.88;3.55;;;;;;;-141.48;100.00;69781.59;5260550;28;20039;-83
2022/04/17 09:55:26;;;;;;;4.65;4.30;;;;;;;-141.48;100.00;69781.59;5263920;28;20024;-82
2022/04/17 09:57:58;;;;;;;4.18;3.97;;;;;;;-141.48;100.00;69781.59;5261479;28;20049;-83
2022/04/17 10:00:41;;;;;;;4.70;4.32;;;;;;;-141.48;100.00;69781.59;5259478;28;20028;-82
2022/04/17 10:03:11;;;;;;;4.88;4.68;;;;;;;-141.48;100.00;69781.59;5256701;28;20035;-82
2022/04/17 10:05:44;;;;;;;3.97;3.78;;;;;;;-141.48;100.00;69781.59;5239419;28;20119;-81
2022/04/17 10:08:14;;;;;;;4.18;3.88;;;;;;;-141.48;100.00;69781.59;5257914;28;20029;-83
2022/04/17 10:10:45;;;;;;;3.97;3.78;;;;;;;-141.48;100.00;69781.59;5256636;28;20387;-83
2022/04/17 10:13:16;;;;;;;4.10;3.90;;;;;;;-141.48;100.00;69781.59;5239586;28;20050;-84
2022/04/17 10:15:49;;;;;;;4.03;3.72;;;;;;;-141.48;100.00;69781.59;5257788;28;20048;-83
2022/04/17 10:18:22;;;;;;;4.95;3.40;;;;;;;-141.48;100.00;69781.59;5258308;28;20489;-82
2022/04/17 10:20:55;;;;;;;4.65;4.35;;;;;;;-141.48;100.00;69781.59;5258636;28;20480;-82
2022/04/17 10:23:27;;;;;;;4.35;4.05;;;;;;;-141.48;100.00;69781.59;5258558;28;20024;-83
2022/04/17 10:26:03;;;;;;;5.30;4.20;;;;;;;-141.48;100.00;69781.59;5258043;28;20455;-82
2022/04/17 10:28:39;;;;;;;4.57;4.25;;;;;;;-141.48;100.00;69781.59;5256988;28;20016;-82
2022/04/17 10:31:19;;;;;;;5.03;4.60;;;;;;;-141.48;100.00;69781.59;5238999;28;20028;-83
2022/04/17 10:34:26;;;;;;;5.03;4.55;;;;;;;-141.48;100.00;69781.59;5239199;28;20024;-84
2022/04/17 10:37:07;;;;;;;4.45;4.10;;;;;;;-141.48;100.00;69781.59;5175969;28;20065;-82
2022/04/17 10:39:45;;;;;;;3.65;3.45;;;;;;;-141.48;100.00;69781.59;5251535;28;20043;-82
2022/04/17 10:42:16;;;;;;;5.10;4.70;;;;;;;-141.48;100.00;69781.59;5256392;28;20036;-83
2022/04/17 10:45:01;;;;;;;4.15;3.95;;;;;;;-141.48;100.00;69781.59;5256210;28;20315;-83
2022/04/17 10:47:32;;;;;;;3.53;3.28;;;;;;;-141.48;100.00;69781.59;5257096;28;20017;-83
2022/04/17 10:50:07;;;;;;;2.70;2.60;;;;;;;-141.48;100.00;69781.59;5257496;28;20039;-83
2022/04/17 10:52:41;;;;;;;4.10;3.90;;;;;;;-141.48;100.00;69781.59;5257145;28;20017;-82
2022/04/17 10:55:16;;;;;;;5.30;4.72;;;;;;;-141.48;100.00;69781.59;5238906;28;20031;-83
2022/04/17 10:57:50;;;;;;;4.90;4.40;;;;;;;-141.48;100.00;69781.59;5256942;28;20099;-81
2022/04/17 11:00:26;;;;;;;4.32;4.13;;;;;;;-141.48;100.00;69781.59;5256654;28;20446;-82
2022/04/17 11:03:01;;;;;;;4.05;3.83;;;;;;;-141.48;100.00;69781.59;5257021;28;20024;-82
2022/04/17 11:08:27;;;;;;;4.88;4.47;;;;;;;-141.48;100.00;69781.59;5260633;28;20035;-83
2022/04/17 11:11:03;;;;;;;4.70;4.40;;;;;;;-141.48;100.00;69781.59;5262517;28;20100;-84
2022/04/17 11:13:36;;;;;;;3.88;3.65;;;;;;;-141.48;100.00;69781.59;5260459;28;20052;-84
2022/04/17 11:16:08;;;;;;;4.63;4.22;;;;;;;-141.48;100.00;69781.59;5242316;28;20032;-84
2022/04/17 11:18:39;;;;;;;4.15;3.95;;;;;;;-141.48;100.00;69781.59;5243335;28;20092;-83
2022/04/17 11:21:10;;;;;;;4.65;4.00;;;;;;;-141.48;100.00;69781.59;5260598;28;20028;-84
2022/04/17 11:23:53;;;;;;;4.57;4.30;;;;;;;-141.48;100.00;69781.59;5259940;28;20363;-82
2022/04/17 11:26:53;;;;;;;4.35;3.95;;;;;;;-141.48;100.00;69781.59;5267847;22;20045;-58
2022/04/17 11:29:43;;;;;;;4.13;3.83;;;;;;;-141.48;100.00;69781.59;5212767;28;20032;-60
2022/04/17 11:32:16;;;;;;;;;;;;;;;-141.48;100.00;69781.59;5244282;28;20079;-60
2022/04/17 11:41:40;;;;;;;3.45;3.17;;;;;;;-141.48;100.00;69781.59;5237142;22;20044;-60
2022/04/17 11:44:12;;;;;;;3.05;2.88;;;;;;;-141.48;100.00;69781.59;5224885;28;20057;-61
2022/04/17 11:46:42;;;;;;;3.03;2.83;;;;;;;-141.48;100.00;69781.59;5227958;28;20048;-61
2022/04/17 11:49:13;;;;;;;3.22;3.13;;;;;;;-141.48;100.00;69781.59;5227885;28;20079;-61
2022/04/17 11:51:43;;;;;;;3.42;3.30;;;;;;;-141.48;100.00;69781.59;5227868;28;20035;-61
2022/04/17 11:54:32;;;;;;;3.17;2.83;;;;;;;-141.48;100.00;69781.59;5227514;28;20028;-61
2022/04/17 11:57:03;;;;;;;3.92;3.67;;;;;;;-141.48;100.00;69781.59;5227856;28;20036;-61
2022/04/17 11:59:54;;;;;;;3.53;3.33;;;;;;;-141.48;100.00;69781.59;5227567;28;20040;-61
2022/04/17 12:02:26;;;;;;;3.53;3.33;;;;;;;-141.48;100.00;69781.59;5227786;28;20020;-61